sensor_id;sensor_type;location;lat;lon;timestamp;P1;durP1;ratioP1;P2;durP2;ratioP2
27899;SDS011;15243;50.726;7.080;2023-01-26T00:01:18;46.88;;;19.02;;
27899;SDS011;15243;50.726;7.080;2023-01-26T00:03:48;53.90;;;20.17;;
27899;SDS011;15243;50.726;7.080;2023-01-26T00:06:16;46.80;;;20.35;;
27899;SDS011;15243;50.726;7.080;2023-01-26T00:08:45;46.35;;;18.85;;
27899;SDS011;15243;50.726;7.080;2023-01-26T00:11:15;52.13;;;19.70;;
27899;SDS011;15243;50.726;7.080;2023-01-26T00:13:43;50.42;;;21.50;;
27899;SDS011;15243;50.726;7.080;2023-01-26T00:16:11;55.13;;;21.88;;
27899;SDS011;15243;50.726;7.080;2023-01-26T00:18:40;62.00;;;23.65;;
27899;SDS011;15243;50.726;7.080;2023-01-26T00:21:08;69.43;;;25.40;;
27899;SDS011;15243;50.726;7.080;2023-01-26T00:23:38;73.45;;;26.48;;
27899;SDS011;15243;50.726;7.080;2023-01-26T00:26:06;76.85;;;26.30;;
27899;SDS011;15243;50.726;7.080;2023-01-26T00:28:34;70.07;;;26.38;;
27899;SDS011;15243;50.726;7.080;2023-01-26T00:31:06;76.47;;;27.33;;
27899;SDS011;15243;50.726;7.080;2023-01-26T00:33:38;74.07;;;25.42;;
27899;SDS011;15243;50.726;7.080;2023-01-26T00:36:05;73.40;;;26.98;;
27899;SDS011;15243;50.726;7.080;2023-01-26T00:38:33;79.45;;;27.15;;
27899;SDS011;15243;50.726;7.080;2023-01-26T00:41:00;76.28;;;28.33;;
27899;SDS011;15243;50.726;7.080;2023-01-26T00:43:26;75.22;;;26.52;;
27899;SDS011;15243;50.726;7.080;2023-01-26T00:45:53;87.60;;;31.25;;
27899;SDS011;15243;50.726;7.080;2023-01-26T00:48:20;94.10;;;31.20;;
27899;SDS011;15243;50.726;7.080;2023-01-26T00:50:50;79.80;;;28.00;;
27899;SDS011;15243;50.726;7.080;2023-01-26T00:53:18;85.25;;;29.73;;
27899;SDS011;15243;50.726;7.080;2023-01-26T00:55:48;90.35;;;30.70;;
27899;SDS011;15243;50.726;7.080;2023-01-26T00:58:15;90.43;;;32.50;;
27899;SDS011;15243;50.726;7.080;2023-01-26T01:00:42;88.07;;;31.48;;
27899;SDS011;15243;50.726;7.080;2023-01-26T01:03:09;89.82;;;31.23;;
27899;SDS011;15243;50.726;7.080;2023-01-26T01:05:36;84.03;;;29.50;;
27899;SDS011;15243;50.726;7.080;2023-01-26T01:08:02;86.28;;;30.30;;
27899;SDS011;15243;50.726;7.080;2023-01-26T01:10:29;83.13;;;29.98;;
27899;SDS011;15243;50.726;7.080;2023-01-26T01:12:56;85.95;;;28.35;;
27899;SDS011;15243;50.726;7.080;2023-01-26T01:15:23;94.68;;;33.10;;
27899;SDS011;15243;50.726;7.080;2023-01-26T01:17:50;90.68;;;31.40;;
27899;SDS011;15243;50.726;7.080;2023-01-26T01:20:17;92.28;;;30.77;;
27899;SDS011;15243;50.726;7.080;2023-01-26T01:22:45;96.75;;;32.78;;
27899;SDS011;15243;50.726;7.080;2023-01-26T01:25:12;92.43;;;32.28;;
27899;SDS011;15243;50.726;7.080;2023-01-26T01:27:39;96.43;;;32.45;;
27899;SDS011;15243;50.726;7.080;2023-01-26T01:30:06;86.28;;;30.90;;
27899;SDS011;15243;50.726;7.080;2023-01-26T01:32:34;91.85;;;31.73;;
27899;SDS011;15243;50.726;7.080;2023-01-26T01:35:01;80.15;;;27.50;;
27899;SDS011;15243;50.726;7.080;2023-01-26T01:37:29;80.35;;;29.50;;
27899;SDS011;15243;50.726;7.080;2023-01-26T01:39:56;90.38;;;29.92;;
27899;SDS011;15243;50.726;7.080;2023-01-26T01:42:24;78.63;;;26.38;;
27899;SDS011;15243;50.726;7.080;2023-01-26T01:47:57;83.03;;;28.35;;
27899;SDS011;15243;50.726;7.080;2023-01-26T01:50:44;82.97;;;27.90;;
27899;SDS011;15243;50.726;7.080;2023-01-26T01:56:23;70.30;;;26.25;;
27899;SDS011;15243;50.726;7.080;2023-01-26T01:58:54;75.72;;;26.67;;
27899;SDS011;15243;50.726;7.080;2023-01-26T02:01:23;71.85;;;26.20;;
27899;SDS011;15243;50.726;7.080;2023-01-26T02:03:51;74.90;;;25.75;;
27899;SDS011;15243;50.726;7.080;2023-01-26T02:06:35;77.45;;;27.17;;
27899;SDS011;15243;50.726;7.080;2023-01-26T02:09:07;80.20;;;27.85;;
27899;SDS011;15243;50.726;7.080;2023-01-26T02:11:55;81.47;;;28.00;;
27899;SDS011;15243;50.726;7.080;2023-01-26T02:14:23;84.13;;;27.98;;
27899;SDS011;15243;50.726;7.080;2023-01-26T02:16:50;74.78;;;28.27;;
27899;SDS011;15243;50.726;7.080;2023-01-26T02:19:20;76.07;;;27.70;;
27899;SDS011;15243;50.726;7.080;2023-01-26T02:21:53;76.78;;;27.85;;
27899;SDS011;15243;50.726;7.080;2023-01-26T02:24:24;74.80;;;26.35;;
27899;SDS011;15243;50.726;7.080;2023-01-26T02:26:53;77.88;;;27.52;;
27899;SDS011;15243;50.726;7.080;2023-01-26T02:29:20;74.43;;;26.58;;
27899;SDS011;15243;50.726;7.080;2023-01-26T02:31:48;77.07;;;26.77;;
27899;SDS011;15243;50.726;7.080;2023-01-26T02:34:15;74.47;;;28.33;;
27899;SDS011;15243;50.726;7.080;2023-01-26T02:36:41;73.47;;;27.70;;
27899;SDS011;15243;50.726;7.080;2023-01-26T02:42:01;78.78;;;26.75;;
27899;SDS011;15243;50.726;7.080;2023-01-26T02:44:46;73.75;;;28.35;;
27899;SDS011;15243;50.726;7.080;2023-01-26T02:47:14;64.93;;;26.33;;
27899;SDS011;15243;50.726;7.080;2023-01-26T02:49:43;75.97;;;28.60;;
27899;SDS011;15243;50.726;7.080;2023-01-26T02:52:16;77.32;;;28.42;;
27899;SDS011;15243;50.726;7.080;2023-01-26T02:54:46;79.65;;;26.65;;
27899;SDS011;15243;50.726;7.080;2023-01-26T02:57:31;79.07;;;29.95;;
27899;SDS011;15243;50.726;7.080;2023-01-26T03:00:00;80.05;;;28.27;;
27899;SDS011;15243;50.726;7.080;2023-01-26T03:02:28;75.05;;;29.85;;
27899;SDS011;15243;50.726;7.080;2023-01-26T03:04:55;83.13;;;28.23;;
27899;SDS011;15243;50.726;7.080;2023-01-26T03:07:22;86.88;;;29.67;;
27899;SDS011;15243;50.726;7.080;2023-01-26T03:09:49;78.72;;;28.95;;
27899;SDS011;15243;50.726;7.080;2023-01-26T03:12:16;75.00;;;26.25;;
27899;SDS011;15243;50.726;7.080;2023-01-26T03:14:43;80.25;;;29.92;;
27899;SDS011;15243;50.726;7.080;2023-01-26T03:17:10;79.38;;;29.48;;
27899;SDS011;15243;50.726;7.080;2023-01-26T03:19:37;79.20;;;29.90;;
27899;SDS011;15243;50.726;7.080;2023-01-26T03:22:22;82.35;;;29.50;;
27899;SDS011;15243;50.726;7.080;2023-01-26T03:25:08;88.30;;;30.10;;
27899;SDS011;15243;50.726;7.080;2023-01-26T03:27:53;84.95;;;30.08;;
27899;SDS011;15243;50.726;7.080;2023-01-26T03:30:20;86.88;;;30.27;;
27899;SDS011;15243;50.726;7.080;2023-01-26T03:32:47;88.75;;;29.45;;
27899;SDS011;15243;50.726;7.080;2023-01-26T03:35:14;84.40;;;29.85;;
27899;SDS011;15243;50.726;7.080;2023-01-26T03:37:41;94.90;;;31.88;;
27899;SDS011;15243;50.726;7.080;2023-01-26T03:40:10;80.70;;;29.33;;
27899;SDS011;15243;50.726;7.080;2023-01-26T03:42:56;84.72;;;28.80;;
27899;SDS011;15243;50.726;7.080;2023-01-26T03:45:41;82.90;;;29.58;;
27899;SDS011;15243;50.726;7.080;2023-01-26T03:48:27;82.85;;;29.05;;
27899;SDS011;15243;50.726;7.080;2023-01-26T03:51:12;82.35;;;30.08;;
27899;SDS011;15243;50.726;7.080;2023-01-26T03:53:58;83.68;;;30.08;;
27899;SDS011;15243;50.726;7.080;2023-01-26T03:56:43;81.43;;;28.63;;
27899;SDS011;15243;50.726;7.080;2023-01-26T03:59:10;81.03;;;27.70;;
27899;SDS011;15243;50.726;7.080;2023-01-26T04:01:41;79.07;;;29.42;;
27899;SDS011;15243;50.726;7.080;2023-01-26T04:04:29;83.43;;;28.23;;
27899;SDS011;15243;50.726;7.080;2023-01-26T04:07:15;86.80;;;27.80;;
27899;SDS011;15243;50.726;7.080;2023-01-26T04:10:00;78.82;;;27.40;;
27899;SDS011;15243;50.726;7.080;2023-01-26T04:12:27;82.38;;;28.45;;
27899;SDS011;15243;50.726;7.080;2023-01-26T04:14:54;81.07;;;28.90;;
27899;SDS011;15243;50.726;7.080;2023-01-26T04:17:39;83.10;;;29.88;;
27899;SDS011;15243;50.726;7.080;2023-01-26T04:20:25;87.57;;;29.35;;
27899;SDS011;15243;50.726;7.080;2023-01-26T04:23:19;79.60;;;27.95;;
27899;SDS011;15243;50.726;7.080;2023-01-26T04:25:47;81.20;;;26.80;;
27899;SDS011;15243;50.726;7.080;2023-01-26T04:28:14;83.80;;;28.20;;
27899;SDS011;15243;50.726;7.080;2023-01-26T04:30:40;84.57;;;28.65;;
27899;SDS011;15243;50.726;7.080;2023-01-26T04:33:07;82.30;;;28.73;;
27899;SDS011;15243;50.726;7.080;2023-01-26T04:35:34;86.78;;;28.80;;
27899;SDS011;15243;50.726;7.080;2023-01-26T04:38:01;79.53;;;27.63;;
27899;SDS011;15243;50.726;7.080;2023-01-26T04:40:28;81.85;;;28.30;;
27899;SDS011;15243;50.726;7.080;2023-01-26T04:42:54;81.57;;;26.70;;
27899;SDS011;15243;50.726;7.080;2023-01-26T04:45:21;83.68;;;30.35;;
27899;SDS011;15243;50.726;7.080;2023-01-26T04:47:48;80.50;;;27.33;;
27899;SDS011;15243;50.726;7.080;2023-01-26T04:50:16;81.60;;;27.52;;
27899;SDS011;15243;50.726;7.080;2023-01-26T04:52:42;89.75;;;29.30;;
27899;SDS011;15243;50.726;7.080;2023-01-26T04:55:09;85.50;;;28.70;;
27899;SDS011;15243;50.726;7.080;2023-01-26T04:57:36;85.90;;;29.65;;
27899;SDS011;15243;50.726;7.080;2023-01-26T05:00:03;81.10;;;29.63;;
27899;SDS011;15243;50.726;7.080;2023-01-26T05:02:31;80.95;;;28.38;;
27899;SDS011;15243;50.726;7.080;2023-01-26T05:04:57;80.13;;;28.65;;
27899;SDS011;15243;50.726;7.080;2023-01-26T05:07:24;82.82;;;28.23;;
27899;SDS011;15243;50.726;7.080;2023-01-26T05:09:51;90.00;;;29.38;;
27899;SDS011;15243;50.726;7.080;2023-01-26T05:12:18;75.95;;;27.00;;
27899;SDS011;15243;50.726;7.080;2023-01-26T05:15:00;78.47;;;27.17;;
27899;SDS011;15243;50.726;7.080;2023-01-26T05:17:27;78.72;;;27.80;;
27899;SDS011;15243;50.726;7.080;2023-01-26T05:19:53;89.35;;;29.98;;
27899;SDS011;15243;50.726;7.080;2023-01-26T05:22:20;87.22;;;27.83;;
27899;SDS011;15243;50.726;7.080;2023-01-26T05:24:47;79.88;;;28.83;;
27899;SDS011;15243;50.726;7.080;2023-01-26T05:27:14;84.05;;;27.63;;
27899;SDS011;15243;50.726;7.080;2023-01-26T05:29:50;78.50;;;28.23;;
27899;SDS011;15243;50.726;7.080;2023-01-26T05:32:17;82.25;;;27.02;;
27899;SDS011;15243;50.726;7.080;2023-01-26T05:34:44;78.55;;;28.75;;
27899;SDS011;15243;50.726;7.080;2023-01-26T05:37:11;83.90;;;28.02;;
27899;SDS011;15243;50.726;7.080;2023-01-26T05:39:40;83.18;;;28.23;;
27899;SDS011;15243;50.726;7.080;2023-01-26T05:42:07;74.32;;;27.90;;
27899;SDS011;15243;50.726;7.080;2023-01-26T05:44:35;92.47;;;31.42;;
27899;SDS011;15243;50.726;7.080;2023-01-26T05:47:02;80.40;;;29.05;;
27899;SDS011;15243;50.726;7.080;2023-01-26T05:49:31;82.82;;;29.27;;
27899;SDS011;15243;50.726;7.080;2023-01-26T05:51:58;92.80;;;30.90;;
27899;SDS011;15243;50.726;7.080;2023-01-26T05:54:25;86.55;;;29.35;;
27899;SDS011;15243;50.726;7.080;2023-01-26T05:56:52;94.00;;;31.73;;
27899;SDS011;15243;50.726;7.080;2023-01-26T05:59:18;93.35;;;32.63;;
27899;SDS011;15243;50.726;7.080;2023-01-26T06:01:45;100.97;;;32.25;;
27899;SDS011;15243;50.726;7.080;2023-01-26T06:04:12;97.38;;;31.35;;
27899;SDS011;15243;50.726;7.080;2023-01-26T06:06:39;81.35;;;29.45;;
27899;SDS011;15243;50.726;7.080;2023-01-26T06:09:06;88.05;;;30.20;;
27899;SDS011;15243;50.726;7.080;2023-01-26T06:11:32;92.43;;;30.90;;
27899;SDS011;15243;50.726;7.080;2023-01-26T06:13:59;89.57;;;30.92;;
27899;SDS011;15243;50.726;7.080;2023-01-26T06:16:26;95.28;;;31.15;;
27899;SDS011;15243;50.726;7.080;2023-01-26T06:18:53;95.97;;;30.92;;
27899;SDS011;15243;50.726;7.080;2023-01-26T06:21:20;95.25;;;32.50;;
27899;SDS011;15243;50.726;7.080;2023-01-26T06:23:47;89.32;;;29.77;;
27899;SDS011;15243;50.726;7.080;2023-01-26T06:26:14;96.20;;;34.42;;
27899;SDS011;15243;50.726;7.080;2023-01-26T06:28:40;93.53;;;32.60;;
27899;SDS011;15243;50.726;7.080;2023-01-26T06:31:08;98.57;;;31.73;;
27899;SDS011;15243;50.726;7.080;2023-01-26T06:33:36;95.30;;;34.45;;
27899;SDS011;15243;50.726;7.080;2023-01-26T06:36:04;92.53;;;32.42;;
27899;SDS011;15243;50.726;7.080;2023-01-26T06:38:33;99.90;;;34.40;;
27899;SDS011;15243;50.726;7.080;2023-01-26T06:41:03;98.25;;;34.35;;
27899;SDS011;15243;50.726;7.080;2023-01-26T06:43:32;96.50;;;34.28;;
27899;SDS011;15243;50.726;7.080;2023-01-26T06:46:01;104.68;;;34.13;;
27899;SDS011;15243;50.726;7.080;2023-01-26T06:48:29;89.88;;;32.78;;
27899;SDS011;15243;50.726;7.080;2023-01-26T06:53:47;98.05;;;36.53;;
27899;SDS011;15243;50.726;7.080;2023-01-26T06:56:21;99.90;;;33.25;;
27899;SDS011;15243;50.726;7.080;2023-01-26T06:58:49;99.65;;;34.05;;
27899;SDS011;15243;50.726;7.080;2023-01-26T07:01:17;99.32;;;34.05;;
27899;SDS011;15243;50.726;7.080;2023-01-26T07:03:50;99.80;;;33.30;;
27899;SDS011;15243;50.726;7.080;2023-01-26T07:06:18;96.18;;;33.47;;
27899;SDS011;15243;50.726;7.080;2023-01-26T07:08:45;84.75;;;32.60;;
27899;SDS011;15243;50.726;7.080;2023-01-26T07:11:12;97.47;;;34.13;;
27899;SDS011;15243;50.726;7.080;2023-01-26T07:13:40;90.28;;;32.10;;
27899;SDS011;15243;50.726;7.080;2023-01-26T07:16:10;94.90;;;34.22;;
27899;SDS011;15243;50.726;7.080;2023-01-26T07:18:38;89.57;;;32.40;;
27899;SDS011;15243;50.726;7.080;2023-01-26T07:21:06;91.95;;;33.50;;
27899;SDS011;15243;50.726;7.080;2023-01-26T07:23:38;96.38;;;32.53;;
27899;SDS011;15243;50.726;7.080;2023-01-26T07:26:05;95.07;;;32.45;;
27899;SDS011;15243;50.726;7.080;2023-01-26T07:28:32;96.10;;;33.05;;
27899;SDS011;15243;50.726;7.080;2023-01-26T07:31:05;99.78;;;34.72;;
27899;SDS011;15243;50.726;7.080;2023-01-26T07:33:33;93.60;;;32.13;;
27899;SDS011;15243;50.726;7.080;2023-01-26T07:36:00;93.60;;;34.83;;
27899;SDS011;15243;50.726;7.080;2023-01-26T07:38:27;93.22;;;35.67;;
27899;SDS011;15243;50.726;7.080;2023-01-26T07:40:55;105.07;;;35.83;;
27899;SDS011;15243;50.726;7.080;2023-01-26T07:43:22;88.60;;;31.85;;
27899;SDS011;15243;50.726;7.080;2023-01-26T07:45:50;83.07;;;30.80;;
27899;SDS011;15243;50.726;7.080;2023-01-26T07:48:19;86.60;;;31.48;;
27899;SDS011;15243;50.726;7.080;2023-01-26T07:50:47;89.28;;;31.50;;
27899;SDS011;15243;50.726;7.080;2023-01-26T07:53:15;90.38;;;32.03;;
27899;SDS011;15243;50.726;7.080;2023-01-26T07:55:48;92.75;;;33.78;;
27899;SDS011;15243;50.726;7.080;2023-01-26T07:58:14;92.47;;;32.10;;
27899;SDS011;15243;50.726;7.080;2023-01-26T08:00:43;87.68;;;30.13;;
27899;SDS011;15243;50.726;7.080;2023-01-26T08:03:13;95.00;;;32.70;;
27899;SDS011;15243;50.726;7.080;2023-01-26T08:05:40;90.90;;;32.97;;
27899;SDS011;15243;50.726;7.080;2023-01-26T08:08:08;91.28;;;30.98;;
27899;SDS011;15243;50.726;7.080;2023-01-26T08:10:35;88.72;;;30.83;;
27899;SDS011;15243;50.726;7.080;2023-01-26T08:13:02;89.93;;;31.88;;
27899;SDS011;15243;50.726;7.080;2023-01-26T08:15:29;107.28;;;33.15;;
27899;SDS011;15243;50.726;7.080;2023-01-26T08:17:56;103.10;;;33.20;;
27899;SDS011;15243;50.726;7.080;2023-01-26T08:20:22;90.22;;;30.90;;
27899;SDS011;15243;50.726;7.080;2023-01-26T08:22:49;86.75;;;29.55;;
27899;SDS011;15243;50.726;7.080;2023-01-26T08:25:16;91.05;;;31.38;;
27899;SDS011;15243;50.726;7.080;2023-01-26T08:27:43;85.90;;;30.67;;
27899;SDS011;15243;50.726;7.080;2023-01-26T08:30:10;83.75;;;28.92;;
27899;SDS011;15243;50.726;7.080;2023-01-26T08:32:38;81.40;;;29.70;;
27899;SDS011;15243;50.726;7.080;2023-01-26T08:35:05;95.68;;;31.35;;
27899;SDS011;15243;50.726;7.080;2023-01-26T08:37:32;79.32;;;30.38;;
27899;SDS011;15243;50.726;7.080;2023-01-26T08:39:59;84.47;;;30.00;;
27899;SDS011;15243;50.726;7.080;2023-01-26T08:42:26;74.30;;;28.60;;
27899;SDS011;15243;50.726;7.080;2023-01-26T08:44:53;82.50;;;29.60;;
27899;SDS011;15243;50.726;7.080;2023-01-26T08:47:19;86.10;;;31.08;;
27899;SDS011;15243;50.726;7.080;2023-01-26T08:49:46;80.28;;;30.08;;
27899;SDS011;15243;50.726;7.080;2023-01-26T08:52:13;79.05;;;29.88;;
27899;SDS011;15243;50.726;7.080;2023-01-26T08:54:40;77.00;;;29.33;;
27899;SDS011;15243;50.726;7.080;2023-01-26T08:57:07;76.13;;;30.42;;
27899;SDS011;15243;50.726;7.080;2023-01-26T08:59:34;74.97;;;28.08;;
27899;SDS011;15243;50.726;7.080;2023-01-26T09:02:00;76.90;;;28.80;;
27899;SDS011;15243;50.726;7.080;2023-01-26T09:04:27;82.18;;;31.08;;
27899;SDS011;15243;50.726;7.080;2023-01-26T09:06:54;81.30;;;29.45;;
27899;SDS011;15243;50.726;7.080;2023-01-26T09:09:21;73.07;;;28.52;;
27899;SDS011;15243;50.726;7.080;2023-01-26T09:11:48;75.82;;;30.10;;
27899;SDS011;15243;50.726;7.080;2023-01-26T09:14:15;78.07;;;29.48;;
27899;SDS011;15243;50.726;7.080;2023-01-26T09:16:42;85.55;;;29.80;;
27899;SDS011;15243;50.726;7.080;2023-01-26T09:19:09;82.28;;;30.40;;
27899;SDS011;15243;50.726;7.080;2023-01-26T09:21:35;89.32;;;30.73;;
27899;SDS011;15243;50.726;7.080;2023-01-26T09:24:02;82.68;;;30.15;;
27899;SDS011;15243;50.726;7.080;2023-01-26T09:26:29;88.72;;;31.23;;
27899;SDS011;15243;50.726;7.080;2023-01-26T09:28:56;88.68;;;31.73;;
27899;SDS011;15243;50.726;7.080;2023-01-26T09:31:23;95.90;;;32.05;;
27899;SDS011;15243;50.726;7.080;2023-01-26T09:33:50;87.05;;;30.00;;
27899;SDS011;15243;50.726;7.080;2023-01-26T09:36:17;92.93;;;32.35;;
27899;SDS011;15243;50.726;7.080;2023-01-26T09:38:44;94.88;;;32.72;;
27899;SDS011;15243;50.726;7.080;2023-01-26T09:43:52;96.72;;;32.08;;
27899;SDS011;15243;50.726;7.080;2023-01-26T09:51:39;85.20;;;29.08;;
27899;SDS011;15243;50.726;7.080;2023-01-26T09:57:14;82.28;;;28.45;;
27899;SDS011;15243;50.726;7.080;2023-01-26T10:05:15;79.88;;;28.60;;
27899;SDS011;15243;50.726;7.080;2023-01-26T10:07:49;81.32;;;28.75;;
27899;SDS011;15243;50.726;7.080;2023-01-26T10:10:22;85.03;;;30.17;;
27899;SDS011;15243;50.726;7.080;2023-01-26T10:12:59;84.07;;;30.67;;
27899;SDS011;15243;50.726;7.080;2023-01-26T10:15:29;83.88;;;30.02;;
27899;SDS011;15243;50.726;7.080;2023-01-26T10:18:03;77.35;;;30.85;;
27899;SDS011;15243;50.726;7.080;2023-01-26T10:20:34;78.28;;;29.83;;
27899;SDS011;15243;50.726;7.080;2023-01-26T10:23:06;79.70;;;30.90;;
27899;SDS011;15243;50.726;7.080;2023-01-26T10:25:42;76.32;;;29.33;;
27899;SDS011;15243;50.726;7.080;2023-01-26T10:28:12;78.13;;;29.42;;
27899;SDS011;15243;50.726;7.080;2023-01-26T10:30:46;76.93;;;27.45;;
27899;SDS011;15243;50.726;7.080;2023-01-26T10:33:25;74.35;;;28.15;;
27899;SDS011;15243;50.726;7.080;2023-01-26T10:35:55;73.38;;;27.63;;
27899;SDS011;15243;50.726;7.080;2023-01-26T10:40:58;78.70;;;27.77;;
27899;SDS011;15243;50.726;7.080;2023-01-26T10:43:27;74.15;;;28.25;;
27899;SDS011;15243;50.726;7.080;2023-01-26T10:45:54;74.50;;;27.60;;
27899;SDS011;15243;50.726;7.080;2023-01-26T10:48:22;72.72;;;28.95;;
27899;SDS011;15243;50.726;7.080;2023-01-26T10:50:52;70.50;;;25.85;;
27899;SDS011;15243;50.726;7.080;2023-01-26T10:53:23;72.00;;;24.88;;
27899;SDS011;15243;50.726;7.080;2023-01-26T10:56:03;75.07;;;26.70;;
27899;SDS011;15243;50.726;7.080;2023-01-26T11:01:14;69.10;;;26.63;;
27899;SDS011;15243;50.726;7.080;2023-01-26T11:04:03;71.15;;;27.70;;
27899;SDS011;15243;50.726;7.080;2023-01-26T11:06:37;72.38;;;26.08;;
27899;SDS011;15243;50.726;7.080;2023-01-26T11:09:16;71.82;;;26.25;;
27899;SDS011;15243;50.726;7.080;2023-01-26T11:14:23;76.55;;;27.42;;
27899;SDS011;15243;50.726;7.080;2023-01-26T11:16:56;72.05;;;25.33;;
27899;SDS011;15243;50.726;7.080;2023-01-26T11:22:05;72.30;;;23.60;;
27899;SDS011;15243;50.726;7.080;2023-01-26T11:24:40;71.82;;;24.85;;
27899;SDS011;15243;50.726;7.080;2023-01-26T11:27:44;77.40;;;23.80;;
27899;SDS011;15243;50.726;7.080;2023-01-26T11:47:55;89.85;;;28.30;;
27899;SDS011;15243;50.726;7.080;2023-01-26T11:50:34;83.15;;;27.92;;
27899;SDS011;15243;50.726;7.080;2023-01-26T11:59:12;90.18;;;28.65;;
27899;SDS011;15243;50.726;7.080;2023-01-26T12:04:30;83.15;;;25.40;;
27899;SDS011;15243;50.726;7.080;2023-01-26T12:07:16;76.28;;;24.27;;
27899;SDS011;15243;50.726;7.080;2023-01-26T12:09:52;75.90;;;24.75;;
27899;SDS011;15243;50.726;7.080;2023-01-26T12:15:17;83.82;;;26.27;;
27899;SDS011;15243;50.726;7.080;2023-01-26T12:17:56;77.88;;;26.00;;
27899;SDS011;15243;50.726;7.080;2023-01-26T12:20:41;90.93;;;27.58;;
27899;SDS011;15243;50.726;7.080;2023-01-26T12:23:24;84.90;;;28.95;;
27899;SDS011;15243;50.726;7.080;2023-01-26T12:26:06;81.97;;;24.60;;
27899;SDS011;15243;50.726;7.080;2023-01-26T12:28:42;92.07;;;27.73;;
27899;SDS011;15243;50.726;7.080;2023-01-26T12:33:53;83.80;;;27.85;;
27899;SDS011;15243;50.726;7.080;2023-01-26T12:39:20;88.65;;;27.88;;
27899;SDS011;15243;50.726;7.080;2023-01-26T12:42:16;97.65;;;29.00;;
27899;SDS011;15243;50.726;7.080;2023-01-26T12:44:53;94.07;;;29.40;;
27899;SDS011;15243;50.726;7.080;2023-01-26T12:47:22;100.05;;;28.30;;
27899;SDS011;15243;50.726;7.080;2023-01-26T12:52:21;95.72;;;29.65;;
27899;SDS011;15243;50.726;7.080;2023-01-26T12:57:43;106.22;;;31.52;;
27899;SDS011;15243;50.726;7.080;2023-01-26T13:00:23;115.80;;;31.67;;
27899;SDS011;15243;50.726;7.080;2023-01-26T13:03:05;111.78;;;34.47;;
27899;SDS011;15243;50.726;7.080;2023-01-26T13:10:58;101.78;;;30.90;;
27899;SDS011;15243;50.726;7.080;2023-01-26T13:13:30;100.47;;;30.27;;
27899;SDS011;15243;50.726;7.080;2023-01-26T13:18:50;100.68;;;29.05;;
27899;SDS011;15243;50.726;7.080;2023-01-26T13:21:51;109.32;;;31.05;;
27899;SDS011;15243;50.726;7.080;2023-01-26T13:26:45;112.50;;;32.70;;
27899;SDS011;15243;50.726;7.080;2023-01-26T13:34:42;105.18;;;31.27;;
27899;SDS011;15243;50.726;7.080;2023-01-26T13:40:29;105.68;;;30.25;;
27899;SDS011;15243;50.726;7.080;2023-01-26T13:43:11;104.10;;;29.40;;
27899;SDS011;15243;50.726;7.080;2023-01-26T13:51:05;121.03;;;32.35;;
27899;SDS011;15243;50.726;7.080;2023-01-26T13:53:35;135.43;;;36.20;;
27899;SDS011;15243;50.726;7.080;2023-01-26T13:56:18;119.63;;;35.25;;
27899;SDS011;15243;50.726;7.080;2023-01-26T13:58:50;129.35;;;33.90;;
27899;SDS011;15243;50.726;7.080;2023-01-26T14:01:18;128.18;;;37.13;;
27899;SDS011;15243;50.726;7.080;2023-01-26T14:03:46;130.48;;;35.22;;
27899;SDS011;15243;50.726;7.080;2023-01-26T14:06:14;125.03;;;35.40;;
27899;SDS011;15243;50.726;7.080;2023-01-26T14:08:51;127.95;;;34.55;;
27899;SDS011;15243;50.726;7.080;2023-01-26T14:11:23;125.00;;;34.22;;
27899;SDS011;15243;50.726;7.080;2023-01-26T14:13:53;120.05;;;33.00;;
27899;SDS011;15243;50.726;7.080;2023-01-26T14:16:23;112.53;;;34.15;;
27899;SDS011;15243;50.726;7.080;2023-01-26T14:21:30;100.60;;;31.10;;
27899;SDS011;15243;50.726;7.080;2023-01-26T14:23:58;95.32;;;30.80;;
27899;SDS011;15243;50.726;7.080;2023-01-26T14:26:29;95.65;;;30.38;;
27899;SDS011;15243;50.726;7.080;2023-01-26T14:29:00;97.17;;;29.93;;
27899;SDS011;15243;50.726;7.080;2023-01-26T14:31:28;110.85;;;36.58;;
27899;SDS011;15243;50.726;7.080;2023-01-26T14:33:57;107.80;;;30.08;;
27899;SDS011;15243;50.726;7.080;2023-01-26T14:36:26;102.82;;;31.67;;
27899;SDS011;15243;50.726;7.080;2023-01-26T14:38:54;97.85;;;29.25;;
27899;SDS011;15243;50.726;7.080;2023-01-26T14:41:25;98.45;;;30.30;;
27899;SDS011;15243;50.726;7.080;2023-01-26T14:43:55;101.25;;;30.40;;
27899;SDS011;15243;50.726;7.080;2023-01-26T14:46:32;107.45;;;33.40;;
27899;SDS011;15243;50.726;7.080;2023-01-26T14:49:06;99.38;;;29.90;;
27899;SDS011;15243;50.726;7.080;2023-01-26T14:51:38;112.28;;;32.97;;
27899;SDS011;15243;50.726;7.080;2023-01-26T14:54:17;105.50;;;32.40;;
27899;SDS011;15243;50.726;7.080;2023-01-26T14:56:55;107.28;;;32.47;;
27899;SDS011;15243;50.726;7.080;2023-01-26T14:59:32;107.10;;;33.08;;
27899;SDS011;15243;50.726;7.080;2023-01-26T15:02:25;96.75;;;31.63;;
27899;SDS011;15243;50.726;7.080;2023-01-26T15:05:03;97.68;;;29.75;;
27899;SDS011;15243;50.726;7.080;2023-01-26T15:10:25;103.60;;;31.30;;
27899;SDS011;15243;50.726;7.080;2023-01-26T15:15:42;110.13;;;34.17;;
27899;SDS011;15243;50.726;7.080;2023-01-26T15:18:18;102.95;;;30.90;;
27899;SDS011;15243;50.726;7.080;2023-01-26T15:20:56;101.93;;;33.10;;
27899;SDS011;15243;50.726;7.080;2023-01-26T15:23:40;101.93;;;33.58;;
27899;SDS011;15243;50.726;7.080;2023-01-26T15:28:59;97.65;;;30.85;;
27899;SDS011;15243;50.726;7.080;2023-01-26T15:31:31;93.60;;;30.83;;
27899;SDS011;15243;50.726;7.080;2023-01-26T15:34:04;99.15;;;30.42;;
27899;SDS011;15243;50.726;7.080;2023-01-26T15:36:33;101.75;;;32.28;;
27899;SDS011;15243;50.726;7.080;2023-01-26T15:39:23;99.72;;;31.02;;
27899;SDS011;15243;50.726;7.080;2023-01-26T15:44:33;89.00;;;30.42;;
27899;SDS011;15243;50.726;7.080;2023-01-26T15:47:00;94.45;;;28.60;;
27899;SDS011;15243;50.726;7.080;2023-01-26T15:49:26;89.82;;;28.98;;
27899;SDS011;15243;50.726;7.080;2023-01-26T15:51:53;79.72;;;28.23;;
27899;SDS011;15243;50.726;7.080;2023-01-26T15:54:20;84.15;;;29.42;;
27899;SDS011;15243;50.726;7.080;2023-01-26T15:56:47;82.30;;;28.02;;
27899;SDS011;15243;50.726;7.080;2023-01-26T15:59:14;94.78;;;29.77;;
27899;SDS011;15243;50.726;7.080;2023-01-26T16:01:41;87.82;;;29.45;;
27899;SDS011;15243;50.726;7.080;2023-01-26T16:04:10;75.18;;;27.27;;
27899;SDS011;15243;50.726;7.080;2023-01-26T16:06:38;87.10;;;27.90;;
27899;SDS011;15243;50.726;7.080;2023-01-26T16:09:05;81.72;;;27.33;;
27899;SDS011;15243;50.726;7.080;2023-01-26T16:11:36;78.57;;;29.38;;
27899;SDS011;15243;50.726;7.080;2023-01-26T16:14:09;85.97;;;27.85;;
27899;SDS011;15243;50.726;7.080;2023-01-26T16:16:38;88.70;;;32.47;;
27899;SDS011;15243;50.726;7.080;2023-01-26T16:19:05;92.63;;;30.23;;
27899;SDS011;15243;50.726;7.080;2023-01-26T16:21:34;87.43;;;29.67;;
27899;SDS011;15243;50.726;7.080;2023-01-26T16:24:06;135.50;;;47.95;;
27899;SDS011;15243;50.726;7.080;2023-01-26T16:26:34;78.93;;;27.75;;
27899;SDS011;15243;50.726;7.080;2023-01-26T16:29:01;66.78;;;25.40;;
27899;SDS011;15243;50.726;7.080;2023-01-26T16:31:29;66.22;;;24.83;;
27899;SDS011;15243;50.726;7.080;2023-01-26T16:33:58;65.45;;;22.85;;
27899;SDS011;15243;50.726;7.080;2023-01-26T16:36:26;62.90;;;24.50;;
27899;SDS011;15243;50.726;7.080;2023-01-26T16:38:53;54.40;;;20.85;;